Time;durP1;ratioP1;P1;durP2;ratioP2;P2;SDS_P1;SDS_P2;PMS_P1;PMS_P2;Temp;Humidity;BMP_temperature;BMP_pressure;BME280_temperature;BME280_humidity;BME280_pressure;Samples;Min_cycle;Max_cycle;Signal;HPM_P1;HPM_P2
2021/10/09 00:01:15;;;;;;;3.08;2.20;;;24.00;50.80;;;;;;4953808;28;20039;-56
2021/10/09 00:03:41;;;;;;;4.40;2.45;;;24.00;50.80;;;;;;4966363;28;20035;-52
2021/10/09 00:06:07;;;;;;;2.38;1.80;;;24.00;50.80;;;;;;4962552;28;20102;-54
2021/10/09 00:08:32;;;;;;;3.40;2.08;;;24.00;50.80;;;;;;4964078;28;20025;-49
2021/10/09 00:10:59;;;;;;;2.55;1.88;;;24.00;50.80;;;;;;4983776;28;20110;-53
2021/10/09 00:13:24;;;;;;;3.10;2.10;;;24.00;50.80;;;;;;4972913;28;20178;-53
2021/10/09 00:15:50;;;;;;;2.00;1.60;;;23.90;50.80;;;;;;4983604;28;20050;-48
2021/10/09 00:18:15;;;;;;;3.83;2.13;;;23.90;50.90;;;;;;4968775;28;20130;-50
2021/10/09 00:20:41;;;;;;;2.78;1.90;;;23.90;50.90;;;;;;4960638;28;20066;-59
2021/10/09 00:23:07;;;;;;;3.45;1.98;;;23.90;50.90;;;;;;4972044;28;20060;-59
2021/10/09 00:25:32;;;;;;;2.53;1.77;;;23.90;51.00;;;;;;4972544;28;20081;-51
2021/10/09 00:27:58;;;;;;;3.10;2.10;;;23.90;51.00;;;;;;4970549;28;20077;-48
2021/10/09 00:30:24;;;;;;;3.28;2.10;;;23.80;51.00;;;;;;4968599;28;20114;-50
2021/10/09 00:32:49;;;;;;;2.55;1.85;;;23.80;51.00;;;;;;4977551;28;20030;-53
2021/10/09 00:35:15;;;;;;;2.30;1.80;;;23.80;51.00;;;;;;4973915;28;20028;-57
2021/10/09 00:37:40;;;;;;;2.20;1.70;;;23.80;51.10;;;;;;4960146;28;20059;-56
2021/10/09 00:40:07;;;;;;;2.78;1.70;;;23.70;51.10;;;;;;4972377;28;20030;-54
2021/10/09 00:42:33;;;;;;;3.83;1.80;;;23.70;51.10;;;;;;4982082;28;20092;-49
2021/10/09 00:44:58;;;;;;;2.60;1.98;;;23.70;51.60;;;;;;4970363;28;20038;-58
2021/10/09 00:47:25;;;;;;;2.67;1.90;;;23.70;51.20;;;;;;4975098;28;20058;-57
2021/10/09 00:49:51;;;;;;;2.78;1.90;;;23.70;51.20;;;;;;4980022;28;20024;-56
2021/10/09 00:52:18;;;;;;;2.80;1.95;;;23.60;51.20;;;;;;4974900;28;20031;-50
2021/10/09 00:54:48;;;;;;;2.75;2.00;;;23.60;51.30;;;;;;4971291;28;20026;-49
2021/10/09 00:57:16;;;;;;;3.20;1.80;;;23.60;51.80;;;;;;4980296;28;20364;-50
2021/10/09 00:59:43;;;;;;;2.72;1.80;;;23.60;51.30;;;;;;4971824;28;20034;-51
2021/10/09 01:02:09;;;;;;;2.60;1.67;;;23.50;51.30;;;;;;4963799;28;20027;-58
2021/10/09 01:04:35;;;;;;;2.83;1.80;;;23.50;51.30;;;;;;4972804;28;20117;-59
2021/10/09 01:07:02;;;;;;;2.83;1.85;;;23.50;51.30;;;;;;4970834;28;20723;-48
2021/10/09 01:09:28;;;;;;;2.30;1.70;;;23.40;51.30;;;;;;4971719;28;20050;-59
2021/10/09 01:11:54;;;;;;;2.85;1.83;;;23.40;51.30;;;;;;4963326;28;20066;-52
2021/10/09 01:14:19;;;;;;;3.15;2.00;;;23.40;51.40;;;;;;4975266;28;20023;-58
2021/10/09 01:16:48;;;;;;;2.88;2.00;;;23.40;51.40;;;;;;4969585;28;20058;-52
2021/10/09 01:19:13;;;;;;;3.05;2.00;;;23.40;51.40;;;;;;4975383;28;20121;-55
2021/10/09 01:21:44;;;;;;;2.33;1.75;;;23.40;51.50;;;;;;4968968;28;20121;-49
2021/10/09 01:24:11;;;;;;;3.10;2.10;;;23.30;51.40;;;;;;4982523;28;20042;-54
2021/10/09 01:26:37;;;;;;;4.68;2.08;;;23.30;51.50;;;;;;4975383;28;20056;-47
2021/10/09 01:29:05;;;;;;;2.67;1.90;;;23.30;51.50;;;;;;4969649;28;20118;-49
2021/10/09 01:31:31;;;;;;;2.38;1.70;;;23.30;51.50;;;;;;4959801;28;20039;-55
2021/10/09 01:33:57;;;;;;;2.83;2.10;;;23.30;51.60;;;;;;4976688;28;20070;-50
2021/10/09 01:36:27;;;;;;;2.60;2.00;;;23.20;51.60;;;;;;4966136;28;20483;-57
2021/10/09 01:38:53;;;;;;;2.90;1.92;;;23.20;52.20;;;;;;4965421;28;20479;-58
2021/10/09 01:41:18;;;;;;;2.70;1.65;;;23.20;51.70;;;;;;4970749;28;20037;-53
2021/10/09 01:43:44;;;;;;;2.65;1.90;;;23.10;51.70;;;;;;4986660;28;20137;-52
2021/10/09 01:46:10;;;;;;;2.88;1.85;;;23.10;51.80;;;;;;4969184;28;20039;-52
2021/10/09 01:48:38;;;;;;;3.15;1.80;;;23.10;51.80;;;;;;4980216;28;20132;-55
2021/10/09 01:51:06;;;;;;;2.50;1.77;;;23.00;52.40;;;;;;4959866;28;20416;-47
2021/10/09 01:53:32;;;;;;;2.75;1.80;;;23.00;51.90;;;;;;4964911;28;20065;-46
2021/10/09 01:55:58;;;;;;;3.05;2.05;;;23.00;51.90;;;;;;4978198;28;20035;-49
2021/10/09 01:58:24;;;;;;;2.25;1.70;;;23.00;51.90;;;;;;4982403;28;20038;-59
2021/10/09 02:00:50;;;;;;;2.35;1.70;;;23.00;52.00;;;;;;4973392;28;20096;-47
2021/10/09 02:03:18;;;;;;;2.50;1.80;;;23.00;52.00;;;;;;4981653;28;20106;-49
2021/10/09 02:05:44;;;;;;;2.65;1.85;;;23.00;52.00;;;;;;4980074;28;20039;-50
2021/10/09 02:08:10;;;;;;;3.30;2.10;;;22.90;51.90;;;;;;4978018;28;20438;-46
2021/10/09 02:10:45;;;;;;;2.40;1.90;;;22.90;52.00;;;;;;4971228;28;20038;-56
2021/10/09 02:13:13;;;;;;;2.78;1.90;;;22.90;52.10;;;;;;4972747;28;20105;-44
2021/10/09 02:15:47;;;;;;;2.72;1.80;;;22.80;52.00;;;;;;4988537;28;20042;-59
2021/10/09 02:26:09;;;;;;;2.30;1.80;;;22.80;52.10;;;;;;4967575;28;20069;-49
2021/10/09 02:28:35;;;;;;;2.70;1.90;;;22.80;52.10;;;;;;4984653;28;20050;-51
2021/10/09 02:31:00;;;;;;;2.83;1.85;;;22.70;52.10;;;;;;4980352;28;20122;-48
2021/10/09 02:33:26;;;;;;;2.42;1.83;;;22.80;52.70;;;;;;4970912;28;20443;-56
2021/10/09 02:35:52;;;;;;;2.40;1.90;;;22.70;52.10;;;;;;4972713;28;20039;-55
2021/10/09 02:38:18;;;;;;;2.55;1.70;;;22.70;52.20;;;;;;4980120;28;20054;-51
2021/10/09 02:40:44;;;;;;;2.63;1.80;;;22.70;52.20;;;;;;4972790;28;20065;-49
2021/10/09 02:43:11;;;;;;;2.38;1.75;;;22.70;52.20;;;;;;4964480;28;20035;-55
2021/10/09 02:45:36;;;;;;;2.67;1.92;;;22.70;52.20;;;;;;4979789;28;20178;-51
2021/10/09 02:48:07;;;;;;;2.50;1.80;;;22.70;52.20;;;;;;4984085;28;20098;-54
2021/10/09 02:50:33;;;;;;;2.72;1.85;;;22.60;52.20;;;;;;4979749;28;20026;-48
2021/10/09 02:52:59;;;;;;;2.60;1.90;;;22.60;52.20;;;;;;4963550;28;20050;-58
2021/10/09 02:55:25;;;;;;;2.33;1.80;;;22.60;52.30;;;;;;4972293;28;20035;-59
2021/10/09 02:57:51;;;;;;;2.90;2.10;;;22.60;52.30;;;;;;4987948;28;20344;-50
2021/10/09 03:00:19;;;;;;;2.55;1.80;;;22.60;52.30;;;;;;4974043;28;20046;-56
2021/10/09 03:02:44;;;;;;;2.35;1.75;;;22.60;52.30;;;;;;4965062;28;20058;-54
2021/10/09 03:05:11;;;;;;;2.42;1.70;;;22.60;52.30;;;;;;4971344;28;20070;-46
2021/10/09 03:07:38;;;;;;;2.20;1.63;;;22.50;52.30;;;;;;4971863;28;20546;-53
2021/10/09 03:10:06;;;;;;;2.55;1.60;;;22.50;52.30;;;;;;4982058;28;20031;-49
2021/10/09 03:12:31;;;;;;;2.25;1.70;;;22.50;52.40;;;;;;4982057;28;20114;-49
2021/10/09 03:14:57;;;;;;;2.30;1.80;;;22.50;52.40;;;;;;4963241;28;20043;-47
2021/10/09 03:17:23;;;;;;;2.78;1.90;;;22.50;52.40;;;;;;4971335;28;20479;-47
2021/10/09 03:19:48;;;;;;;2.05;1.67;;;22.40;52.40;;;;;;4989549;28;20070;-54
2021/10/09 03:22:14;;;;;;;2.28;1.60;;;22.40;52.40;;;;;;4983763;28;20154;-54
2021/10/09 03:24:40;;;;;;;2.60;1.70;;;22.40;52.90;;;;;;4972189;28;20031;-54
2021/10/09 03:27:06;;;;;;;3.47;1.98;;;22.40;52.50;;;;;;4977258;28;20529;-58
2021/10/09 03:29:32;;;;;;;2.30;1.70;;;22.40;52.50;;;;;;4972971;28;20034;-59
2021/10/09 03:31:58;;;;;;;3.35;2.05;;;22.30;52.50;;;;;;4986479;28;20035;-48
2021/10/09 03:34:23;;;;;;;2.13;1.67;;;22.30;52.50;;;;;;4965114;28;20444;-55
2021/10/09 03:36:49;;;;;;;2.40;1.70;;;22.30;52.50;;;;;;4968778;28;20504;-47
2021/10/09 03:39:18;;;;;;;2.40;1.60;;;22.30;52.50;;;;;;4972769;28;20019;-49
2021/10/09 03:41:50;;;;;;;2.95;1.90;;;22.30;52.50;;;;;;4975873;28;20043;-51
2021/10/09 03:44:16;;;;;;;2.53;1.73;;;22.30;52.50;;;;;;4981056;28;20050;-58
2021/10/09 03:46:56;;;;;;;2.28;1.65;;;22.30;52.60;;;;;;4975459;28;20818;-52
2021/10/09 03:54:31;;;;;;;2.80;1.70;;;22.20;52.60;;;;;;4972558;28;20034;-52
2021/10/09 03:56:56;;;;;;;2.63;1.90;;;22.20;52.60;;;;;;4975411;28;20482;-55
2021/10/09 03:59:22;;;;;;;2.30;1.80;;;22.20;52.60;;;;;;4968046;28;20041;-51
2021/10/09 04:01:48;;;;;;;2.33;1.70;;;22.20;52.60;;;;;;4962700;28;20039;-53
2021/10/09 04:04:13;;;;;;;2.42;1.70;;;22.20;52.70;;;;;;4981183;28;20731;-51
2021/10/09 04:06:39;;;;;;;2.30;1.90;;;22.20;52.70;;;;;;4961984;28;20402;-46
2021/10/09 04:09:04;;;;;;;3.03;1.95;;;22.10;52.60;;;;;;4970703;28;20031;-51
2021/10/09 04:11:30;;;;;;;2.55;1.80;;;22.10;52.60;;;;;;4962945;28;20125;-52
2021/10/09 04:13:55;;;;;;;2.28;1.55;;;22.10;52.60;;;;;;4980016;28;20034;-59
2021/10/09 04:16:21;;;;;;;2.30;1.80;;;22.10;52.60;;;;;;4971475;28;20030;-54
2021/10/09 04:18:47;;;;;;;2.45;1.83;;;22.10;52.60;;;;;;4973093;28;20714;-59
2021/10/09 04:21:12;;;;;;;2.70;1.67;;;22.10;52.70;;;;;;4972096;28;20052;-59
2021/10/09 04:23:38;;;;;;;2.10;1.70;;;22.10;52.60;;;;;;4971260;28;20444;-59
2021/10/09 04:26:04;;;;;;;1.90;1.50;;;22.10;52.60;;;;;;4976201;28;20034;-47
2021/10/09 04:28:29;;;;;;;2.30;1.70;;;22.10;52.60;;;;;;4968819;28;20411;-50
2021/10/09 04:30:55;;;;;;;2.55;1.73;;;22.10;52.60;;;;;;4967817;28;20052;-56
2021/10/09 04:33:20;;;;;;;2.40;1.60;;;22.10;52.70;;;;;;4981066;28;20030;-51
2021/10/09 04:35:46;;;;;;;2.40;1.70;;;22.10;52.70;;;;;;4973043;28;20035;-47
2021/10/09 04:38:12;;;;;;;2.40;1.95;;;22.10;52.70;;;;;;4967589;28;20035;-48
2021/10/09 04:40:38;;;;;;;2.50;1.73;;;22.00;52.70;;;;;;4964987;28;20039;-53
2021/10/09 04:43:05;;;;;;;2.20;1.60;;;22.10;53.20;;;;;;4968669;28;20046;-57
2021/10/09 04:45:31;;;;;;;2.33;1.70;;;22.10;52.80;;;;;;4967034;28;20041;-59
2021/10/09 04:47:56;;;;;;;2.17;1.77;;;22.00;52.70;;;;;;4971547;28;20107;-47
2021/10/09 04:50:22;;;;;;;2.22;1.83;;;22.00;52.70;;;;;;4975643;28;20081;-54
2021/10/09 04:52:47;;;;;;;2.75;1.88;;;22.00;52.80;;;;;;4964739;28;20031;-59
2021/10/09 04:55:13;;;;;;;2.70;1.88;;;21.90;52.70;;;;;;4979287;28;20101;-55
2021/10/09 04:57:39;;;;;;;2.35;1.85;;;21.90;52.70;;;;;;4968239;28;20031;-48
2021/10/09 05:00:06;;;;;;;2.22;1.73;;;22.00;52.70;;;;;;4973574;28;20026;-52
2021/10/09 05:02:32;;;;;;;2.35;1.98;;;22.00;52.80;;;;;;4963900;28;20030;-52
2021/10/09 05:04:57;;;;;;;2.60;1.80;;;22.00;52.80;;;;;;4975782;28;20599;-56
2021/10/09 05:07:23;;;;;;;2.35;1.77;;;22.00;52.80;;;;;;4964824;28;20138;-56
2021/10/09 05:09:50;;;;;;;2.80;1.90;;;22.00;52.80;;;;;;4968045;28;20038;-52
2021/10/09 05:12:16;;;;;;;2.10;1.60;;;21.90;52.70;;;;;;4969701;28;20023;-46
2021/10/09 05:14:42;;;;;;;2.47;1.73;;;21.90;52.70;;;;;;4985646;28;20457;-59
2021/10/09 05:17:08;;;;;;;2.10;1.70;;;21.90;52.70;;;;;;4962885;28;20046;-51
2021/10/09 05:19:34;;;;;;;2.42;1.80;;;21.90;52.80;;;;;;4974689;28;20038;-48
2021/10/09 05:21:59;;;;;;;2.10;1.50;;;21.80;52.70;;;;;;4970169;28;20073;-49
2021/10/09 05:24:25;;;;;;;2.40;1.90;;;21.80;52.70;;;;;;4970459;28;20034;-52
2021/10/09 05:26:51;;;;;;;2.45;1.77;;;21.80;52.80;;;;;;4981650;28;20383;-49
2021/10/09 05:29:18;;;;;;;2.25;1.90;;;21.80;52.80;;;;;;4970605;28;20029;-56
2021/10/09 05:31:47;;;;;;;2.47;1.90;;;21.80;52.80;;;;;;4974860;28;20091;-58
2021/10/09 05:34:13;;;;;;;2.20;1.70;;;21.80;52.80;;;;;;4980644;28;20605;-51
2021/10/09 05:36:38;;;;;;;2.30;1.60;;;21.80;52.80;;;;;;4963317;28;20052;-58
2021/10/09 05:39:04;;;;;;;2.47;1.88;;;21.80;52.80;;;;;;4977570;28;20114;-55
2021/10/09 05:41:30;;;;;;;2.05;1.63;;;21.80;52.90;;;;;;4970965;28;20056;-59
2021/10/09 05:43:55;;;;;;;2.63;1.80;;;21.80;52.90;;;;;;4976275;28;20532;-54
2021/10/09 05:46:22;;;;;;;2.58;1.83;;;21.70;52.80;;;;;;4973440;28;20038;-55
2021/10/09 05:48:48;;;;;;;2.40;1.75;;;21.70;52.80;;;;;;4968819;28;20031;-49
2021/10/09 05:51:20;;;;;;;2.63;1.70;;;21.70;52.90;;;;;;4962610;28;20020;-58
2021/10/09 05:54:04;;;;;;;2.38;1.80;;;21.70;52.90;;;;;;4976441;28;20137;-53
2021/10/09 05:59:33;;;;;;;2.30;1.73;;;21.70;52.90;;;;;;4970434;28;20107;-46
2021/10/09 07:00:07;;;;;;;3.10;1.70;;;21.50;53.20;;;;;;4972133;28;20043;-57
2021/10/09 07:02:37;;;;;;;2.17;1.60;;;21.50;53.20;;;;;;4962989;28;20523;-51
2021/10/09 07:05:05;;;;;;;3.00;2.15;;;21.50;53.20;;;;;;4969356;28;20113;-58
2021/10/09 07:07:35;;;;;;;2.83;1.60;;;21.50;53.30;;;;;;4968940;28;20023;-50
2021/10/09 07:10:00;;;;;;;;;;;21.40;53.20;;;;;;4960877;28;20479;-59
2021/10/09 07:12:26;;;;;;;2.15;1.60;;;21.50;53.30;;;;;;4968237;28;19914;-56
2021/10/09 07:14:51;;;;;;;2.72;1.75;;;21.50;53.30;;;;;;4970513;28;20019;-54
2021/10/09 07:17:17;;;;;;;2.53;1.55;;;21.50;53.30;;;;;;4965811;28;20154;-54
2021/10/09 07:19:42;;;;;;;2.50;1.80;;;21.40;53.20;;;;;;4989395;28;20117;-50
2021/10/09 07:22:08;;;;;;;2.20;1.60;;;21.40;53.30;;;;;;4968425;28;20395;-49
2021/10/09 07:24:34;;;;;;;2.70;1.80;;;21.40;53.20;;;;;;4974600;28;20027;-59
2021/10/09 07:26:59;;;;;;;2.50;1.70;;;21.40;53.20;;;;;;4966377;28;20297;-59
2021/10/09 07:29:25;;;;;;;3.15;1.70;;;21.40;53.20;;;;;;4979233;28;20149;-55
2021/10/09 07:31:51;;;;;;;2.67;1.63;;;21.40;53.20;;;;;;4967048;28;20035;-57
2021/10/09 07:34:17;;;;;;;2.10;1.70;;;21.40;53.30;;;;;;4976574;28;20031;-55
2021/10/09 07:36:42;;;;;;;3.42;1.90;;;21.40;53.30;;;;;;4967899;28;20037;-55
2021/10/09 07:39:08;;;;;;;2.75;1.90;;;21.40;53.30;;;;;;4979094;28;20026;-60
2021/10/09 07:41:34;;;;;;;2.53;1.80;;;21.40;53.30;;;;;;4968878;28;20041;-50
2021/10/09 07:43:59;;;;;;;3.22;1.90;;;21.30;53.20;;;;;;4971401;28;20031;-53
2021/10/09 07:46:25;;;;;;;2.90;1.92;;;21.40;53.30;;;;;;4982648;28;20026;-57
2021/10/09 07:48:50;;;;;;;2.42;1.73;;;21.30;53.30;;;;;;4984794;28;20030;-49
2021/10/09 07:51:17;;;;;;;3.22;1.90;;;21.30;53.30;;;;;;4972542;28;20110;-54
2021/10/09 07:53:43;;;;;;;2.78;1.70;;;21.40;53.30;;;;;;4970012;28;20059;-49
2021/10/09 07:56:08;;;;;;;2.53;1.85;;;21.40;53.30;;;;;;4975860;28;20054;-51
2021/10/09 07:58:34;;;;;;;2.70;1.90;;;21.30;53.30;;;;;;4988455;28;20045;-53
2021/10/09 08:00:59;;;;;;;2.67;1.90;;;21.30;53.30;;;;;;4974494;28;20517;-55
2021/10/09 08:03:25;;;;;;;4.45;2.00;;;21.30;53.30;;;;;;4965781;28;20031;-54
2021/10/09 08:05:52;;;;;;;3.15;1.80;;;21.30;53.30;;;;;;4966158;28;20046;-57
2021/10/09 08:08:19;;;;;;;2.80;1.85;;;21.30;53.30;;;;;;4976721;28;20050;-56
2021/10/09 08:10:47;;;;;;;2.53;1.88;;;21.30;53.30;;;;;;4968083;28;20129;-52
2021/10/09 08:13:13;;;;;;;3.17;2.30;;;21.30;53.30;;;;;;4966343;28;20045;-49
2021/10/09 08:15:39;;;;;;;2.65;1.88;;;21.30;53.30;;;;;;4966734;28;20060;-49
2021/10/09 08:18:04;;;;;;;2.67;2.00;;;21.30;53.30;;;;;;4972185;28;20053;-59
2021/10/09 08:20:30;;;;;;;3.22;2.13;;;21.30;53.30;;;;;;4966555;28;20126;-48
2021/10/09 08:23:08;;;;;;;3.60;1.85;;;21.30;53.30;;;;;;4974824;28;20034;-48
2021/10/09 08:35:22;;;;;;;3.38;2.25;;;21.30;53.30;;;;;;4969455;28;20034;-56
2021/10/09 08:36:31;;;;;;;2.88;1.98;;;21.30;53.30;;;;;;4965947;28;20046;-51
2021/10/09 08:38:56;;;;;;;3.85;2.20;;;21.30;53.30;;;;;;4971804;28;20058;-56
2021/10/09 08:41:22;;;;;;;2.97;1.90;;;21.30;53.30;;;;;;4960227;28;20163;-52
2021/10/09 08:43:50;;;;;;;3.05;2.13;;;21.30;53.40;;;;;;4965239;28;20035;-52
2021/10/09 08:46:17;;;;;;;3.10;2.40;;;21.20;53.40;;;;;;4967622;28;20086;-48
2021/10/09 08:48:47;;;;;;;3.08;2.00;;;21.20;53.30;;;;;;4969838;28;20030;-52
2021/10/09 08:51:12;;;;;;;2.72;1.80;;;21.20;53.40;;;;;;4963000;28;20742;-54
2021/10/09 08:53:42;;;;;;;3.90;2.13;;;21.20;53.30;;;;;;4963467;28;20039;-50
2021/10/09 08:56:08;;;;;;;5.00;2.15;;;21.20;53.40;;;;;;4970143;28;20081;-55
2021/10/09 08:58:40;;;;;;;3.30;1.75;;;21.20;53.40;;;;;;4974780;28;20041;-55
2021/10/09 09:01:20;;;;;;;3.85;2.30;;;21.20;53.40;;;;;;4968438;28;20034;-53
2021/10/09 09:07:20;;;;;;;2.90;2.13;;;21.20;53.40;;;;;;4968778;28;20026;-51
2021/10/09 09:40:08;;;;;;;3.35;2.15;;;21.20;53.50;;;;;;4964801;28;20114;-48
2021/10/09 09:42:46;;;;;;;4.75;2.42;;;21.20;53.50;;;;;;4957169;28;20027;-51
2021/10/09 09:45:18;;;;;;;3.35;2.35;;;21.20;53.50;;;;;;4971056;28;20065;-47
2021/10/09 09:47:44;;;;;;;3.00;2.30;;;21.20;53.50;;;;;;4967381;28;20446;-59
2021/10/09 09:50:12;;;;;;;3.30;2.22;;;21.20;53.50;;;;;;4963228;28;20035;-51
2021/10/09 09:52:39;;;;;;;3.58;2.40;;;21.20;53.50;;;;;;4958901;28;20035;-56
2021/10/09 09:55:07;;;;;;;3.10;2.20;;;21.20;53.50;;;;;;4967700;28;20463;-47
2021/10/09 09:57:35;;;;;;;2.90;2.10;;;21.10;53.50;;;;;;4962525;28;20489;-48
2021/10/09 10:00:03;;;;;;;3.10;2.20;;;21.20;53.50;;;;;;4964934;28;20041;-55
2021/10/09 10:02:30;;;;;;;3.42;2.20;;;21.20;53.50;;;;;;4959854;28;20102;-56
2021/10/09 10:05:01;;;;;;;2.70;2.00;;;21.20;53.50;;;;;;4962324;28;20051;-52
2021/10/09 10:07:28;;;;;;;3.53;2.13;;;21.20;53.50;;;;;;4959745;28;20035;-54
2021/10/09 10:09:53;;;;;;;5.75;3.08;;;21.20;53.60;;;;;;4965186;28;20033;-53
2021/10/09 10:12:20;;;;;;;3.88;2.15;;;21.20;53.50;;;;;;4968812;28;20026;-53
2021/10/09 10:14:47;;;;;;;3.08;2.13;;;21.20;54.10;;;;;;4967737;28;20026;-48
2021/10/09 10:17:13;;;;;;;4.07;2.30;;;21.20;53.60;;;;;;4963731;28;20030;-50
2021/10/09 10:19:50;;;;;;;3.58;2.50;;;21.20;53.60;;;;;;4967726;28;20037;-51
2021/10/09 10:22:17;;;;;;;3.65;2.53;;;21.20;53.70;;;;;;4962677;28;20077;-55
2021/10/09 10:24:48;;;;;;;7.68;2.30;;;21.20;53.60;;;;;;4969239;28;20089;-55
2021/10/09 10:27:40;;;;;;;4.72;2.53;;;21.20;53.70;;;;;;4971215;28;20053;-55
2021/10/09 10:30:15;;;;;;;3.15;2.38;;;21.20;53.70;;;;;;4962629;28;20184;-52
2021/10/09 10:32:46;;;;;;;3.35;2.28;;;21.20;53.70;;;;;;4969357;28;20045;-59
2021/10/09 10:35:30;;;;;;;4.43;2.67;;;21.20;53.70;;;;;;4973078;28;20089;-55
2021/10/09 10:38:15;;;;;;;4.25;2.60;;;21.20;53.80;;;;;;4966360;28;20031;-50
2021/10/09 10:40:54;;;;;;;3.90;2.38;;;21.20;53.80;;;;;;4973124;28;20039;-57
2021/10/09 10:46:00;;;;;;;3.78;2.45;;;21.20;53.70;;;;;;4970524;28;20064;-46
2021/10/09 10:48:47;;;;;;;3.60;2.40;;;21.20;53.70;;;;;;4984188;28;20022;-48
2021/10/09 10:57:07;;;;;;;3.33;2.42;;;21.20;53.70;;;;;;4971197;28;20157;-52
2021/10/09 10:59:55;;;;;;;3.57;2.50;;;21.30;53.80;;;;;;4967882;28;20062;-57
2021/10/09 11:02:38;;;;;;;3.70;2.20;;;21.20;53.70;;;;;;4973650;28;20062;-51
2021/10/09 11:05:08;;;;;;;4.22;2.58;;;21.20;53.70;;;;;;4966997;28;20382;-51
2021/10/09 11:07:39;;;;;;;3.47;2.40;;;21.30;53.70;;;;;;4967663;28;20026;-59
2021/10/09 11:10:09;;;;;;;3.08;2.20;;;21.20;53.70;;;;;;4963762;28;20160;-52
2021/10/09 11:12:37;;;;;;;4.10;3.00;;;21.30;53.70;;;;;;4972577;28;20031;-46
2021/10/09 11:15:28;;;;;;;5.05;2.85;;;21.30;53.80;;;;;;4967421;28;20069;-46
2021/10/09 11:18:03;;;;;;;3.50;2.80;;;21.20;53.70;;;;;;4979649;28;20031;-56
2021/10/09 11:20:36;;;;;;;4.40;3.00;;;21.30;53.70;;;;;;4961346;28;20035;-54
2021/10/09 11:23:06;;;;;;;3.38;2.60;;;21.20;53.70;;;;;;4964511;28;20019;-57
2021/10/09 11:25:41;;;;;;;3.03;2.20;;;21.30;53.70;;;;;;4981619;28;20034;-57
2021/10/09 11:28:22;;;;;;;3.90;2.90;;;21.30;53.80;;;;;;4968502;28;20019;-50
2021/10/09 11:30:48;;;;;;;4.10;2.75;;;21.20;53.70;;;;;;4968386;28;20034;-53
2021/10/09 11:33:14;;;;;;;4.32;2.90;;;21.20;53.70;;;;;;4964523;28;20119;-54
2021/10/09 11:35:42;;;;;;;3.72;2.65;;;21.30;53.80;;;;;;4976327;28;20252;-55
2021/10/09 11:38:19;;;;;;;4.28;2.15;;;21.30;53.80;;;;;;4967727;28;20088;-50
2021/10/09 11:41:08;;;;;;;4.25;2.55;;;21.20;53.70;;;;;;4969283;28;20088;-52
2021/10/09 11:46:22;;;;;;;3.90;2.80;;;21.30;53.80;;;;;;4980151;28;20023;-52
2021/10/09 11:55:01;;;;;;;3.65;2.40;;;21.30;53.70;;;;;;4957261;28;20042;-49
2021/10/09 11:57:14;;;;;;;3.45;2.60;;;21.30;53.70;;;;;;4966186;28;20043;-50
2021/10/09 11:59:42;;;;;;;3.97;2.42;;;21.30;53.70;;;;;;4970382;28;20463;-59
2021/10/09 12:02:08;;;;;;;4.45;2.67;;;21.30;53.70;;;;;;4971532;28;20066;-51
2021/10/09 12:04:34;;;;;;;3.53;2.30;;;21.30;53.70;;;;;;4970736;28;20087;-51
2021/10/09 12:09:38;;;;;;;4.80;2.83;;;21.30;53.60;;;;;;4967363;28;20034;-58
2021/10/09 12:12:11;;;;;;;3.92;2.30;;;21.30;53.60;;;;;;4968278;28;20555;-53
2021/10/09 12:14:36;;;;;;;4.50;2.50;;;21.30;53.60;;;;;;4964836;28;20070;-53
2021/10/09 12:17:02;;;;;;;4.45;2.90;;;21.30;53.60;;;;;;4979944;28;20110;-49
2021/10/09 12:19:30;;;;;;;4.07;2.70;;;21.30;53.60;;;;;;4966678;28;20108;-51
2021/10/09 12:22:00;;;;;;;4.82;2.90;;;21.30;54.10;;;;;;4962069;28;20030;-47
2021/10/09 12:24:28;;;;;;;4.82;2.60;;;21.30;53.60;;;;;;4965359;28;20042;-52
2021/10/09 12:27:15;;;;;;;3.95;2.45;;;21.30;53.60;;;;;;4971447;28;20201;-56
2021/10/09 12:30:05;;;;;;;3.67;2.67;;;21.30;53.60;;;;;;4966899;28;20122;-59
2021/10/09 12:32:48;;;;;;;4.05;2.80;;;21.30;53.60;;;;;;4966449;28;20487;-52
2021/10/09 12:35:24;;;;;;;4.95;2.60;;;21.30;53.60;;;;;;4969069;28;20574;-54
2021/10/09 12:38:00;;;;;;;4.72;2.70;;;21.30;53.50;;;;;;4957400;28;20123;-54
2021/10/09 12:40:28;;;;;;;4.05;2.50;;;21.30;53.60;;;;;;4964835;28;20027;-59
2021/10/09 12:42:56;;;;;;;3.90;2.45;;;21.30;53.60;;;;;;4965095;28;20022;-51
2021/10/09 12:45:23;;;;;;;3.78;2.45;;;21.30;53.60;;;;;;4964195;28;20403;-57
2021/10/09 12:47:48;;;;;;;4.60;2.60;;;21.30;54.10;;;;;;4967060;28;20027;-51
2021/10/09 12:50:14;;;;;;;3.75;2.63;;;21.30;53.60;;;;;;4965860;28;20965;-54
2021/10/09 12:52:40;;;;;;;4.38;2.63;;;21.30;53.60;;;;;;4964667;28;20099;-49
2021/10/09 12:55:07;;;;;;;3.92;2.83;;;21.30;53.60;;;;;;4963223;28;20554;-55
2021/10/09 12:57:34;;;;;;;5.00;2.65;;;21.30;53.70;;;;;;4967446;28;20543;-49
2021/10/09 13:00:00;;;;;;;4.85;2.75;;;21.30;53.80;;;;;;4967523;28;20031;-55
2021/10/09 13:02:26;;;;;;;3.80;2.60;;;21.30;54.00;;;;;;4958602;28;20039;-52
2021/10/09 13:04:52;;;;;;;5.00;2.80;;;21.30;54.00;;;;;;4965733;28;20098;-50
2021/10/09 13:07:18;;;;;;;3.85;2.60;;;21.30;54.00;;;;;;4963185;28;20358;-51
2021/10/09 13:09:44;;;;;;;4.15;2.67;;;21.30;54.00;;;;;;4969809;28;20038;-49
2021/10/09 13:12:13;;;;;;;4.50;2.50;;;21.30;54.00;;;;;;4966691;28;20033;-47
2021/10/09 13:14:39;;;;;;;3.58;2.35;;;21.30;54.10;;;;;;4965456;28;20023;-52
2021/10/09 13:17:04;;;;;;;4.32;2.38;;;21.30;54.10;;;;;;4965214;28;20514;-54
2021/10/09 13:19:30;;;;;;;4.20;2.70;;;21.30;54.10;;;;;;4966787;28;20101;-58
2021/10/09 13:21:56;;;;;;;6.03;2.70;;;21.30;54.10;;;;;;4962788;28;20118;-60
2021/10/09 13:24:21;;;;;;;3.70;2.80;;;21.30;54.20;;;;;;4968526;28;20513;-60
2021/10/09 13:26:47;;;;;;;5.13;2.70;;;21.30;54.20;;;;;;4966786;28;20126;-57
2021/10/09 13:29:13;;;;;;;4.30;2.63;;;21.30;54.20;;;;;;4968504;28;20479;-55
2021/10/09 13:31:38;;;;;;;4.32;2.90;;;21.30;54.10;;;;;;4964820;28;20101;-57
2021/10/09 13:34:05;;;;;;;4.30;2.42;;;21.30;54.10;;;;;;4979860;28;20034;-57
2021/10/09 13:36:30;;;;;;;3.65;2.50;;;21.30;54.10;;;;;;4963538;28;20379;-56
2021/10/09 13:38:57;;;;;;;3.83;2.60;;;21.30;54.10;;;;;;4965121;28;20113;-60
2021/10/09 13:41:23;;;;;;;6.25;3.10;;;21.30;54.20;;;;;;4958875;28;20133;-60
2021/10/09 13:43:48;;;;;;;3.58;2.30;;;21.30;54.20;;;;;;4959635;28;20120;-56
2021/10/09 13:46:16;;;;;;;3.47;2.40;;;21.30;54.30;;;;;;4970468;28;20039;-54
2021/10/09 13:48:42;;;;;;;4.22;2.80;;;21.30;54.20;;;;;;4969743;28;20845;-54
2021/10/09 13:51:12;;;;;;;3.42;2.42;;;21.30;54.20;;;;;;4963360;28;20094;-60
2021/10/09 13:53:42;;;;;;;3.58;2.30;;;21.30;54.20;;;;;;4972506;28;20414;-57
2021/10/09 13:56:08;;;;;;;4.47;2.80;;;21.30;54.30;;;;;;4969740;28;20161;-60
2021/10/09 13:58:34;;;;;;;4.45;2.80;;;21.30;54.20;;;;;;4970504;28;20031;-52
2021/10/09 14:01:00;;;;;;;4.75;2.60;;;21.30;54.10;;;;;;4968439;28;20117;-60
2021/10/09 14:03:26;;;;;;;4.07;2.50;;;21.30;54.10;;;;;;4970309;28;20431;-58
2021/10/09 14:05:53;;;;;;;3.97;2.50;;;21.30;54.10;;;;;;4968385;28;20114;-59
2021/10/09 14:08:19;;;;;;;4.55;2.65;;;21.30;54.10;;;;;;4968319;28;20117;-60
2021/10/09 14:10:45;;;;;;;4.85;2.60;;;21.30;54.00;;;;;;4960200;28;20490;-59
2021/10/09 14:13:11;;;;;;;3.80;2.80;;;21.30;54.00;;;;;;4970970;28;20030;-60
2021/10/09 14:15:38;;;;;;;3.85;2.53;;;21.30;54.00;;;;;;4966673;28;20038;-57
2021/10/09 14:18:05;;;;;;;3.92;2.55;;;21.30;54.00;;;;;;4972826;28;20030;-59
2021/10/09 14:20:31;;;;;;;5.50;2.70;;;21.30;54.00;;;;;;4975870;28;20058;-59
2021/10/09 14:22:58;;;;;;;4.18;2.47;;;21.30;54.00;;;;;;4974218;28;20435;-55
2021/10/09 14:25:31;;;;;;;3.25;2.45;;;21.30;54.00;;;;;;4972987;28;20033;-60
2021/10/09 14:28:01;;;;;;;4.38;2.60;;;21.30;53.90;;;;;;4972073;28;20343;-59
2021/10/09 14:30:27;;;;;;;4.22;2.60;;;21.30;53.90;;;;;;4973029;28;20065;-59
2021/10/09 14:32:53;;;;;;;6.22;2.47;;;21.30;54.00;;;;;;4969020;28;20034;-57
2021/10/09 14:35:19;;;;;;;5.32;2.60;;;21.30;53.90;;;;;;4971135;28;20047;-59
2021/10/09 14:37:45;;;;;;;4.68;2.40;;;21.30;53.90;;;;;;4969806;28;20027;-60
2021/10/09 14:40:12;;;;;;;4.22;2.58;;;21.30;53.90;;;;;;4961401;28;20043;-59
2021/10/09 14:42:37;;;;;;;4.50;2.70;;;21.30;53.90;;;;;;4979181;28;20034;-58
2021/10/09 14:45:04;;;;;;;4.47;2.45;;;21.30;53.90;;;;;;4980597;28;20109;-60
2021/10/09 14:52:50;;;;;;;3.80;2.42;;;21.30;53.90;;;;;;4970424;28;20027;-55
2021/10/09 15:19:36;;;;;;;3.17;2.30;;;21.30;53.90;;;;;;4967089;28;20042;-60
2021/10/09 15:22:02;;;;;;;3.33;2.35;;;21.30;53.90;;;;;;4971549;28;20027;-60
2021/10/09 15:24:28;;;;;;;4.43;2.58;;;21.30;53.90;;;;;;4975501;28;20046;-60
2021/10/09 15:26:54;;;;;;;3.53;2.30;;;21.30;53.90;;;;;;4977074;28;20145;-56
2021/10/09 15:29:20;;;;;;;4.45;2.47;;;21.30;53.90;;;;;;4973002;28;20616;-57
2021/10/09 15:31:45;;;;;;;5.15;2.80;;;21.30;53.90;;;;;;4973712;28;20127;-54
2021/10/09 15:34:11;;;;;;;4.32;2.67;;;21.30;53.90;;;;;;4979219;28;20027;-57
2021/10/09 15:36:37;;;;;;;5.30;2.65;;;21.30;53.80;;;;;;4961578;28;20113;-59